MTN8501 KEYW-KFLL
Flight info
| Callsign | MTN8501 |
|---|---|
| Flight time | 0h 53m |
| Altitude | 7000 |
| Route | CARNU DVALL4 |
| Aircraft | C208/L-SDFGR/C |
Departure
| Time | 2026-05-06 19:28 |
|---|---|
| Airport | Key West International Airport (KEYW) |
Arrival
| Time | 2026-05-06 20:22 |
|---|---|
| Airport | Fort Lauderdale Hollywood International Airport (KFLL) |
| Time | Latitude | Longitude | Altitude | Speed | Heading |
|---|---|---|---|---|---|
| 2026-05-06 19:14 | 24.55396 | -81.75367 | 15 ft | 0 kts | 269° |
| 2026-05-06 19:24 | 24.55401 | -81.75379 | 15 ft | 6 kts | 316° |
| 2026-05-06 19:24 | 24.55466 | -81.75383 | 16 ft | 14 kts | 360° |
| 2026-05-06 19:25 | 24.55532 | -81.75428 | 15 ft | 15 kts | 268° |
| 2026-05-06 19:25 | 24.55531 | -81.75565 | 15 ft | 21 kts | 269° |
| 2026-05-06 19:25 | 24.55529 | -81.75735 | 14 ft | 23 kts | 270° |
| 2026-05-06 19:25 | 24.55528 | -81.75906 | 11 ft | 22 kts | 269° |
| 2026-05-06 19:26 | 24.55525 | -81.76093 | 8 ft | 24 kts | 269° |
| 2026-05-06 19:26 | 24.55524 | -81.76262 | 7 ft | 21 kts | 270° |
| 2026-05-06 19:26 | 24.55522 | -81.76430 | 6 ft | 22 kts | 270° |
| 2026-05-06 19:26 | 24.55520 | -81.76596 | 7 ft | 18 kts | 270° |
| 2026-05-06 19:27 | 24.55586 | -81.76655 | 8 ft | 17 kts | 11° |
| 2026-05-06 19:27 | 24.55609 | -81.76509 | 7 ft | 35 kts | 89° |
| 2026-05-06 19:27 | 24.55613 | -81.76072 | 9 ft | 76 kts | 88° |
| 2026-05-06 19:27 | 24.55630 | -81.75407 | 90 ft | 93 kts | 91° |
| 2026-05-06 19:28 | 24.55655 | -81.74715 | 305 ft | 92 kts | 89° |
| 2026-05-06 19:28 | 24.55694 | -81.74008 | 495 ft | 94 kts | 88° |
| 2026-05-06 19:28 | 24.55889 | -81.73308 | 651 ft | 104 kts | 60° |
| 2026-05-06 19:28 | 24.56349 | -81.72658 | 885 ft | 109 kts | 44° |
| 2026-05-06 19:29 | 24.56952 | -81.72167 | 1188 ft | 107 kts | 30° |
| 2026-05-06 19:29 | 24.57625 | -81.71763 | 1347 ft | 115 kts | 29° |
| 2026-05-06 19:29 | 24.58353 | -81.71351 | 1535 ft | 121 kts | 29° |
| 2026-05-06 19:29 | 24.59100 | -81.70936 | 1834 ft | 120 kts | 27° |
| 2026-05-06 19:30 | 24.59826 | -81.70496 | 2074 ft | 122 kts | 33° |
| 2026-05-06 19:30 | 24.60557 | -81.70011 | 2364 ft | 123 kts | 32° |
| 2026-05-06 19:30 | 24.61305 | -81.69508 | 2551 ft | 126 kts | 33° |
| 2026-05-06 19:30 | 24.62033 | -81.69008 | 2806 ft | 122 kts | 33° |
| 2026-05-06 19:31 | 24.62755 | -81.68500 | 2988 ft | 124 kts | 32° |
| 2026-05-06 19:31 | 24.63495 | -81.68024 | 3211 ft | 122 kts | 30° |
| 2026-05-06 19:31 | 24.64696 | -81.67215 | 3549 ft | 122 kts | 32° |
| 2026-05-06 19:32 | 24.65411 | -81.66702 | 3720 ft | 124 kts | 33° |
| 2026-05-06 19:32 | 24.66131 | -81.66167 | 3910 ft | 125 kts | 34° |
| 2026-05-06 19:32 | 24.66854 | -81.65647 | 4114 ft | 124 kts | 32° |
| 2026-05-06 19:32 | 24.67594 | -81.65147 | 4307 ft | 126 kts | 32° |
| 2026-05-06 19:33 | 24.68340 | -81.64626 | 4489 ft | 128 kts | 33° |
| 2026-05-06 19:33 | 24.69091 | -81.64097 | 4678 ft | 128 kts | 32° |
| 2026-05-06 19:33 | 24.69835 | -81.63570 | 4888 ft | 127 kts | 33° |
| 2026-05-06 19:33 | 24.70577 | -81.63039 | 5069 ft | 127 kts | 33° |
| 2026-05-06 19:34 | 24.71325 | -81.62513 | 5247 ft | 128 kts | 32° |
| 2026-05-06 19:34 | 24.72067 | -81.61991 | 5449 ft | 128 kts | 34° |
| 2026-05-06 19:34 | 24.72796 | -81.61436 | 5641 ft | 127 kts | 36° |
| 2026-05-06 19:34 | 24.73534 | -81.60886 | 5797 ft | 129 kts | 34° |
| 2026-05-06 19:35 | 24.74289 | -81.60347 | 5962 ft | 129 kts | 32° |
| 2026-05-06 19:35 | 24.75057 | -81.59833 | 6146 ft | 129 kts | 32° |
| 2026-05-06 19:35 | 24.75827 | -81.59323 | 6319 ft | 129 kts | 34° |
| 2026-05-06 19:35 | 24.76589 | -81.58788 | 6497 ft | 129 kts | 33° |
| 2026-05-06 19:36 | 24.77344 | -81.58261 | 6670 ft | 128 kts | 33° |
| 2026-05-06 19:36 | 24.78105 | -81.57745 | 6823 ft | 129 kts | 34° |
| 2026-05-06 19:36 | 24.78850 | -81.57199 | 6938 ft | 132 kts | 34° |
| 2026-05-06 19:36 | 24.79650 | -81.56623 | 6979 ft | 142 kts | 34° |
| 2026-05-06 19:37 | 24.80500 | -81.56008 | 6993 ft | 150 kts | 34° |
| 2026-05-06 19:37 | 24.81403 | -81.55385 | 6987 ft | 156 kts | 33° |
| 2026-05-06 19:37 | 24.82336 | -81.54745 | 6977 ft | 160 kts | 33° |
| 2026-05-06 19:37 | 24.83284 | -81.54087 | 6971 ft | 162 kts | 33° |
| 2026-05-06 19:38 | 24.84240 | -81.53417 | 6968 ft | 164 kts | 33° |
| 2026-05-06 19:38 | 24.85202 | -81.52741 | 6972 ft | 165 kts | 33° |
| 2026-05-06 19:38 | 24.86168 | -81.52061 | 6968 ft | 165 kts | 34° |
| 2026-05-06 19:38 | 24.87138 | -81.51379 | 6967 ft | 165 kts | 34° |
| 2026-05-06 19:39 | 24.88110 | -81.50696 | 6969 ft | 165 kts | 33° |
| 2026-05-06 19:39 | 24.89080 | -81.50012 | 6971 ft | 166 kts | 34° |
| 2026-05-06 19:39 | 24.90051 | -81.49329 | 6970 ft | 166 kts | 33° |
| 2026-05-06 19:39 | 24.91026 | -81.48644 | 6967 ft | 166 kts | 33° |
| 2026-05-06 19:40 | 24.91985 | -81.47966 | 6969 ft | 166 kts | 34° |
| 2026-05-06 19:40 | 24.92956 | -81.47280 | 6970 ft | 166 kts | 34° |
| 2026-05-06 19:40 | 24.93929 | -81.46595 | 6972 ft | 166 kts | 34° |
| 2026-05-06 19:40 | 24.94901 | -81.45910 | 6970 ft | 166 kts | 34° |
| 2026-05-06 19:41 | 24.95874 | -81.45224 | 6970 ft | 166 kts | 34° |
| 2026-05-06 19:41 | 24.96847 | -81.44538 | 6970 ft | 166 kts | 34° |
| 2026-05-06 19:41 | 24.97818 | -81.43850 | 6971 ft | 166 kts | 34° |
| 2026-05-06 19:41 | 24.98786 | -81.43162 | 6973 ft | 165 kts | 34° |
| 2026-05-06 19:42 | 24.99753 | -81.42476 | 6969 ft | 165 kts | 34° |
| 2026-05-06 19:42 | 25.00726 | -81.41789 | 6967 ft | 165 kts | 34° |
| 2026-05-06 19:42 | 25.01694 | -81.41106 | 6971 ft | 165 kts | 34° |
| 2026-05-06 19:42 | 25.02661 | -81.40421 | 6970 ft | 165 kts | 34° |
| 2026-05-06 19:43 | 25.03630 | -81.39736 | 6970 ft | 165 kts | 34° |
| 2026-05-06 19:43 | 25.04588 | -81.39059 | 6969 ft | 165 kts | 34° |
| 2026-05-06 19:43 | 25.05559 | -81.38373 | 6972 ft | 166 kts | 34° |
| 2026-05-06 19:43 | 25.06530 | -81.37687 | 6970 ft | 166 kts | 34° |
| 2026-05-06 19:44 | 25.07502 | -81.36999 | 6970 ft | 166 kts | 34° |
| 2026-05-06 19:44 | 25.08474 | -81.36313 | 6972 ft | 166 kts | 34° |
| 2026-05-06 19:44 | 25.09442 | -81.35628 | 6972 ft | 165 kts | 34° |
| 2026-05-06 19:44 | 25.10409 | -81.34944 | 6975 ft | 165 kts | 34° |
| 2026-05-06 19:45 | 25.11376 | -81.34263 | 6974 ft | 165 kts | 34° |
| 2026-05-06 19:45 | 25.12342 | -81.33579 | 6970 ft | 165 kts | 34° |
| 2026-05-06 19:45 | 25.13307 | -81.32894 | 6972 ft | 165 kts | 34° |
| 2026-05-06 19:45 | 25.14249 | -81.32168 | 6969 ft | 165 kts | 38° |
| 2026-05-06 19:46 | 25.15150 | -81.31392 | 6969 ft | 164 kts | 39° |
| 2026-05-06 19:46 | 25.16051 | -81.30614 | 6972 ft | 164 kts | 39° |
| 2026-05-06 19:46 | 25.16953 | -81.29838 | 6970 ft | 164 kts | 39° |
| 2026-05-06 19:46 | 25.17853 | -81.29061 | 6971 ft | 164 kts | 39° |
| 2026-05-06 19:47 | 25.18752 | -81.28283 | 6967 ft | 164 kts | 39° |
| 2026-05-06 19:47 | 25.19651 | -81.27505 | 6970 ft | 164 kts | 39° |
| 2026-05-06 19:47 | 25.20549 | -81.26728 | 6971 ft | 164 kts | 39° |
| 2026-05-06 19:47 | 25.21436 | -81.25960 | 6972 ft | 164 kts | 39° |
| 2026-05-06 19:48 | 25.22335 | -81.25181 | 6977 ft | 164 kts | 39° |
| 2026-05-06 19:48 | 25.23231 | -81.24403 | 6975 ft | 164 kts | 39° |
| 2026-05-06 19:48 | 25.24130 | -81.23625 | 6981 ft | 164 kts | 39° |
| 2026-05-06 19:48 | 25.25027 | -81.22847 | 6981 ft | 164 kts | 39° |
| 2026-05-06 19:49 | 25.25925 | -81.22070 | 6980 ft | 164 kts | 39° |
| 2026-05-06 19:49 | 25.26821 | -81.21294 | 6981 ft | 164 kts | 39° |
| 2026-05-06 19:49 | 25.27718 | -81.20517 | 6976 ft | 163 kts | 39° |
| 2026-05-06 19:49 | 25.28612 | -81.19743 | 6979 ft | 163 kts | 39° |
| 2026-05-06 19:50 | 25.29506 | -81.18966 | 6978 ft | 163 kts | 39° |
| 2026-05-06 19:50 | 25.30400 | -81.18190 | 6979 ft | 163 kts | 39° |
| 2026-05-06 19:50 | 25.31285 | -81.17422 | 6977 ft | 163 kts | 39° |
| 2026-05-06 19:50 | 25.32179 | -81.16647 | 6978 ft | 163 kts | 40° |
| 2026-05-06 19:51 | 25.33070 | -81.15873 | 6974 ft | 163 kts | 39° |
| 2026-05-06 19:51 | 25.33961 | -81.15097 | 6978 ft | 163 kts | 39° |
| 2026-05-06 19:51 | 25.34854 | -81.14322 | 6976 ft | 163 kts | 39° |
| 2026-05-06 19:51 | 25.35749 | -81.13547 | 6976 ft | 163 kts | 39° |
| 2026-05-06 19:52 | 25.36639 | -81.12774 | 6976 ft | 163 kts | 40° |
| 2026-05-06 19:52 | 25.37531 | -81.12000 | 6980 ft | 163 kts | 39° |
| 2026-05-06 19:52 | 25.38423 | -81.11224 | 6978 ft | 163 kts | 40° |
| 2026-05-06 19:52 | 25.39314 | -81.10448 | 6973 ft | 163 kts | 40° |
| 2026-05-06 19:53 | 25.40193 | -81.09683 | 6976 ft | 163 kts | 40° |
| 2026-05-06 19:53 | 25.41081 | -81.08911 | 6972 ft | 162 kts | 39° |
| 2026-05-06 19:53 | 25.41970 | -81.08138 | 6989 ft | 163 kts | 39° |
| 2026-05-06 19:53 | 25.42872 | -81.07353 | 6990 ft | 166 kts | 40° |
| 2026-05-06 19:54 | 25.43778 | -81.06565 | 6967 ft | 166 kts | 39° |
| 2026-05-06 19:54 | 25.44679 | -81.05779 | 6964 ft | 164 kts | 39° |
| 2026-05-06 19:54 | 25.45593 | -81.04985 | 6820 ft | 168 kts | 40° |
| 2026-05-06 19:54 | 25.46518 | -81.04181 | 6638 ft | 170 kts | 40° |
| 2026-05-06 19:55 | 25.47447 | -81.03372 | 6445 ft | 170 kts | 40° |
| 2026-05-06 19:55 | 25.48376 | -81.02563 | 6240 ft | 169 kts | 40° |
| 2026-05-06 19:55 | 25.49301 | -81.01758 | 6034 ft | 169 kts | 39° |
| 2026-05-06 19:55 | 25.50226 | -81.00957 | 5849 ft | 169 kts | 40° |
| 2026-05-06 19:56 | 25.51141 | -81.00140 | 5660 ft | 169 kts | 45° |
| 2026-05-06 19:56 | 25.51819 | -80.99104 | 5458 ft | 166 kts | 66° |
| 2026-05-06 19:56 | 25.52296 | -80.97945 | 5245 ft | 165 kts | 66° |
| 2026-05-06 19:56 | 25.52794 | -80.96809 | 5047 ft | 163 kts | 65° |
| 2026-05-06 19:57 | 25.53303 | -80.95685 | 4864 ft | 164 kts | 65° |
| 2026-05-06 19:57 | 25.53807 | -80.94554 | 4673 ft | 164 kts | 65° |
| 2026-05-06 19:57 | 25.54311 | -80.93421 | 4466 ft | 164 kts | 65° |
| 2026-05-06 19:57 | 25.54812 | -80.92287 | 4262 ft | 163 kts | 65° |
| 2026-05-06 19:58 | 25.55310 | -80.91157 | 4069 ft | 164 kts | 65° |
| 2026-05-06 19:58 | 25.55796 | -80.90053 | 4005 ft | 159 kts | 65° |
| 2026-05-06 19:58 | 25.56286 | -80.88950 | 3983 ft | 160 kts | 65° |
| 2026-05-06 19:58 | 25.56775 | -80.87846 | 3974 ft | 160 kts | 65° |
| 2026-05-06 19:59 | 25.57263 | -80.86741 | 3969 ft | 159 kts | 65° |
| 2026-05-06 19:59 | 25.57747 | -80.85644 | 3964 ft | 158 kts | 65° |
| 2026-05-06 19:59 | 25.58227 | -80.84555 | 3965 ft | 157 kts | 65° |
| 2026-05-06 19:59 | 25.58709 | -80.83470 | 3959 ft | 156 kts | 65° |
| 2026-05-06 20:00 | 25.59187 | -80.82389 | 3970 ft | 157 kts | 65° |
| 2026-05-06 20:00 | 25.59665 | -80.81297 | 3975 ft | 158 kts | 65° |
| 2026-05-06 20:00 | 25.60144 | -80.80200 | 3972 ft | 158 kts | 65° |
| 2026-05-06 20:00 | 25.60626 | -80.79106 | 3971 ft | 158 kts | 65° |
| 2026-05-06 20:01 | 25.61107 | -80.78009 | 3971 ft | 158 kts | 65° |
| 2026-05-06 20:01 | 25.61582 | -80.76933 | 3967 ft | 157 kts | 65° |
| 2026-05-06 20:01 | 25.62064 | -80.75840 | 3969 ft | 158 kts | 65° |
| 2026-05-06 20:01 | 25.62546 | -80.74747 | 3973 ft | 158 kts | 65° |
| 2026-05-06 20:02 | 25.63029 | -80.73650 | 3965 ft | 158 kts | 65° |
| 2026-05-06 20:02 | 25.63510 | -80.72554 | 3976 ft | 158 kts | 66° |
| 2026-05-06 20:02 | 25.63992 | -80.71453 | 3978 ft | 159 kts | 65° |
| 2026-05-06 20:02 | 25.64475 | -80.70350 | 3978 ft | 160 kts | 65° |
| 2026-05-06 20:03 | 25.64963 | -80.69240 | 3978 ft | 160 kts | 65° |
| 2026-05-06 20:03 | 25.65449 | -80.68128 | 3975 ft | 161 kts | 65° |
| 2026-05-06 20:03 | 25.65936 | -80.67015 | 3978 ft | 160 kts | 65° |
| 2026-05-06 20:03 | 25.66427 | -80.65904 | 3978 ft | 160 kts | 65° |
| 2026-05-06 20:04 | 25.66912 | -80.64792 | 3976 ft | 161 kts | 65° |
| 2026-05-06 20:04 | 25.67402 | -80.63680 | 3965 ft | 160 kts | 65° |
| 2026-05-06 20:04 | 25.67882 | -80.62592 | 3972 ft | 159 kts | 65° |
| 2026-05-06 20:04 | 25.68366 | -80.61484 | 3978 ft | 159 kts | 65° |
| 2026-05-06 20:05 | 25.68851 | -80.60375 | 3982 ft | 160 kts | 65° |
| 2026-05-06 20:05 | 25.69339 | -80.59262 | 3980 ft | 161 kts | 65° |
| 2026-05-06 20:05 | 25.69827 | -80.58146 | 3984 ft | 161 kts | 65° |
| 2026-05-06 20:05 | 25.70316 | -80.57028 | 3978 ft | 161 kts | 65° |
| 2026-05-06 20:06 | 25.70805 | -80.55912 | 3976 ft | 161 kts | 65° |
| 2026-05-06 20:06 | 25.71293 | -80.54795 | 3982 ft | 161 kts | 65° |
| 2026-05-06 20:06 | 25.71784 | -80.53678 | 3983 ft | 161 kts | 65° |
| 2026-05-06 20:06 | 25.72274 | -80.52557 | 3983 ft | 162 kts | 65° |
| 2026-05-06 20:07 | 25.72763 | -80.51435 | 3977 ft | 162 kts | 65° |
| 2026-05-06 20:07 | 25.73249 | -80.50323 | 3983 ft | 162 kts | 65° |
| 2026-05-06 20:07 | 25.73743 | -80.49196 | 3985 ft | 162 kts | 65° |
| 2026-05-06 20:07 | 25.74234 | -80.48066 | 3979 ft | 162 kts | 65° |
| 2026-05-06 20:08 | 25.74729 | -80.46941 | 3979 ft | 162 kts | 64° |
| 2026-05-06 20:08 | 25.75223 | -80.45815 | 3978 ft | 162 kts | 65° |
| 2026-05-06 20:08 | 25.75713 | -80.44689 | 3980 ft | 162 kts | 64° |
| 2026-05-06 20:08 | 25.76198 | -80.43577 | 3983 ft | 162 kts | 64° |
| 2026-05-06 20:09 | 25.76689 | -80.42447 | 3977 ft | 162 kts | 64° |
| 2026-05-06 20:09 | 25.77179 | -80.41323 | 3989 ft | 162 kts | 64° |
| 2026-05-06 20:09 | 25.77670 | -80.40198 | 3995 ft | 162 kts | 64° |
| 2026-05-06 20:09 | 25.78164 | -80.39066 | 3993 ft | 163 kts | 64° |
| 2026-05-06 20:10 | 25.78658 | -80.37935 | 3993 ft | 163 kts | 64° |
| 2026-05-06 20:10 | 25.79440 | -80.37068 | 3988 ft | 163 kts | 20° |
| 2026-05-06 20:10 | 25.80554 | -80.36902 | 3992 ft | 162 kts | 3° |
| 2026-05-06 20:10 | 25.81682 | -80.36866 | 3990 ft | 162 kts | 0° |
| 2026-05-06 20:11 | 25.82806 | -80.36874 | 3989 ft | 161 kts | 359° |
| 2026-05-06 20:11 | 25.83931 | -80.36901 | 3993 ft | 162 kts | 358° |
| 2026-05-06 20:11 | 25.85056 | -80.36940 | 3992 ft | 162 kts | 358° |
| 2026-05-06 20:11 | 25.86183 | -80.36982 | 3991 ft | 162 kts | 358° |
| 2026-05-06 20:12 | 25.87310 | -80.37027 | 3987 ft | 162 kts | 358° |
| 2026-05-06 20:12 | 25.88420 | -80.37071 | 3985 ft | 162 kts | 358° |
| 2026-05-06 20:12 | 25.89545 | -80.37117 | 3992 ft | 162 kts | 358° |
| 2026-05-06 20:12 | 25.90675 | -80.37163 | 3998 ft | 163 kts | 358° |
| 2026-05-06 20:13 | 25.91806 | -80.37208 | 3984 ft | 162 kts | 358° |
| 2026-05-06 20:13 | 25.92939 | -80.37254 | 3995 ft | 163 kts | 358° |
| 2026-05-06 20:13 | 25.94070 | -80.37300 | 3987 ft | 163 kts | 358° |
| 2026-05-06 20:13 | 25.95191 | -80.37346 | 3978 ft | 157 kts | 358° |
| 2026-05-06 20:14 | 25.96256 | -80.37390 | 3862 ft | 150 kts | 358° |
| 2026-05-06 20:14 | 25.97288 | -80.37435 | 3698 ft | 146 kts | 358° |
| 2026-05-06 20:14 | 25.98297 | -80.37447 | 3520 ft | 144 kts | 10° |
| 2026-05-06 20:14 | 25.99212 | -80.37031 | 3371 ft | 141 kts | 26° |
| 2026-05-06 20:15 | 26.00089 | -80.36554 | 3232 ft | 140 kts | 27° |
| 2026-05-06 20:15 | 26.00953 | -80.36062 | 3090 ft | 139 kts | 28° |
| 2026-05-06 20:15 | 26.01814 | -80.35563 | 2950 ft | 139 kts | 28° |
| 2026-05-06 20:15 | 26.02662 | -80.35053 | 2805 ft | 138 kts | 37° |
| 2026-05-06 20:16 | 26.03354 | -80.34336 | 2672 ft | 138 kts | 47° |
| 2026-05-06 20:16 | 26.04013 | -80.33571 | 2504 ft | 136 kts | 49° |
| 2026-05-06 20:16 | 26.04447 | -80.33049 | 2395 ft | 136 kts | 50° |
| 2026-05-06 20:16 | 26.05060 | -80.32258 | 2271 ft | 134 kts | 58° |
| 2026-05-06 20:17 | 26.05491 | -80.31351 | 2157 ft | 133 kts | 67° |
| 2026-05-06 20:17 | 26.05822 | -80.30405 | 2074 ft | 130 kts | 74° |
| 2026-05-06 20:17 | 26.06077 | -80.29452 | 2037 ft | 127 kts | 77° |
| 2026-05-06 20:17 | 26.06336 | -80.28210 | 1995 ft | 122 kts | 81° |
| 2026-05-06 20:18 | 26.06434 | -80.27589 | 1989 ft | 119 kts | 83° |
| 2026-05-06 20:18 | 26.06556 | -80.26683 | 1923 ft | 117 kts | 83° |
| 2026-05-06 20:18 | 26.06650 | -80.25776 | 1800 ft | 118 kts | 86° |
| 2026-05-06 20:18 | 26.06676 | -80.24869 | 1617 ft | 120 kts | 92° |
| 2026-05-06 20:19 | 26.06681 | -80.23946 | 1441 ft | 118 kts | 92° |
| 2026-05-06 20:19 | 26.06651 | -80.23041 | 1301 ft | 115 kts | 93° |
| 2026-05-06 20:19 | 26.06612 | -80.22161 | 1099 ft | 113 kts | 94° |
| 2026-05-06 20:19 | 26.06597 | -80.21359 | 997 ft | 96 kts | 91° |
| 2026-05-06 20:20 | 26.06583 | -80.20644 | 894 ft | 90 kts | 88° |
| 2026-05-06 20:20 | 26.06604 | -80.19950 | 782 ft | 89 kts | 88° |
| 2026-05-06 20:20 | 26.06614 | -80.19274 | 702 ft | 88 kts | 91° |
| 2026-05-06 20:20 | 26.06609 | -80.18597 | 660 ft | 88 kts | 90° |
| 2026-05-06 20:21 | 26.06606 | -80.17901 | 482 ft | 90 kts | 91° |
| 2026-05-06 20:21 | 26.06602 | -80.17225 | 345 ft | 86 kts | 94° |
| 2026-05-06 20:21 | 26.06596 | -80.16585 | 207 ft | 78 kts | 94° |
| 2026-05-06 20:21 | 26.06591 | -80.16013 | 62 ft | 70 kts | 93° |
| 2026-05-06 20:22 | 26.06592 | -80.15541 | 22 ft | 50 kts | 91° |
| 2026-05-06 20:22 | 26.06585 | -80.15241 | 21 ft | 29 kts | 92° |
| 2026-05-06 20:22 | 26.06585 | -80.15016 | 17 ft | 29 kts | 92° |
| 2026-05-06 20:22 | 26.06583 | -80.14799 | 21 ft | 26 kts | 89° |
| 2026-05-06 20:23 | 26.06635 | -80.14679 | 30 ft | 16 kts | 359° |
| 2026-05-06 20:23 | 26.06676 | -80.14771 | 23 ft | 13 kts | 271° |
| 2026-05-06 20:23 | 26.06694 | -80.14924 | 17 ft | 25 kts | 270° |
| 2026-05-06 20:23 | 26.06695 | -80.15089 | 18 ft | 11 kts | 278° |
| 2026-05-06 20:24 | 26.06757 | -80.15130 | 15 ft | 14 kts | 2° |
| 2026-05-06 20:24 | 26.06871 | -80.15130 | 14 ft | 20 kts | 359° |
| 2026-05-06 20:24 | 26.07034 | -80.15129 | 14 ft | 27 kts | 0° |
| 2026-05-06 20:24 | 26.07226 | -80.15127 | 14 ft | 26 kts | 2° |
| 2026-05-06 20:25 | 26.07411 | -80.15126 | 14 ft | 22 kts | 1° |
| 2026-05-06 20:25 | 26.07564 | -80.15125 | 14 ft | 10 kts | 0° |
| 2026-05-06 20:25 | 26.07658 | -80.15124 | 14 ft | 18 kts | 359° |
| 2026-05-06 20:25 | 26.07788 | -80.15129 | 15 ft | 15 kts | 338° |
| 2026-05-06 20:26 | 26.07811 | -80.15262 | 14 ft | 22 kts | 271° |
| 2026-05-06 20:26 | 26.07812 | -80.15395 | 14 ft | 13 kts | 269° |
| 2026-05-06 20:26 | 26.07813 | -80.15518 | 14 ft | 20 kts | 271° |
| 2026-05-06 20:26 | 26.07816 | -80.15666 | 15 ft | 7 kts | 281° |
| 2026-05-06 20:27 | 26.07871 | -80.15693 | 14 ft | 9 kts | 360° |
| 2026-05-06 20:27 | 26.07874 | -80.15648 | 14 ft | 8 kts | 86° |
| 2026-05-06 20:27 | 26.07875 | -80.15589 | 14 ft | 0 kts | 91° |
| 2026-05-06 20:27 | 26.07875 | -80.15588 | 14 ft | 0 kts | 90° |